Seastreak Highlands — WDE4031 — position and weather

sailwx.info

Track history (hours):
 
Tides and Currents Weather Stations Pressure Air Temp Water Temp Dewpoint Dewpoint Depression Visibility Wind Speed Wind Dir Waves Ship Positions

Seastreak Highlands

Owner: Seastreak llc, atlantic highlands, NJ. More information available from US FCC via Universal Licensing System and Coast Guard Vessel Documentation Center.

Last reported at 2017-Dec-11 16:52 UTC. Time now 2017-Dec-13 03:44 UTC.
Position N 40°25' W 074°02'.

Length 44 m.

Type: High speed craft. MMSI: 367347670.

Date/timePositionNaut miles runAvg speedWind from/ knotsBaromVisibWave heightAir tempDewpointWater temp
2017-Dec-11 16:52N 40°25' W 074°02'0 0.0
2017-Dec-11 16:21N 40°25' W 074°02'0 0.0
2017-Dec-11 15:59N 40°25' W 074°02'0 0.0
2017-Dec-11 15:29N 40°25' W 074°02'0 0.0
2017-Dec-11 15:00N 40°25' W 074°02'0 0.2
2017-Dec-11 14:30N 40°25' W 074°02'1427.8
2017-Dec-11 14:01N 40°39' W 074°02'712.9
2017-Dec-11 13:30N 40°45' W 073°58'613.0
2017-Dec-11 13:01N 40°39' W 074°02'1426.6
2017-Dec-11 12:30N 40°25' W 074°02'0 0.0
2017-Dec-11 11:59N 40°25' W 074°02'0 0.0
2017-Dec-11 03:04N 40°25' W 074°02'0 0.5
2017-Dec-11 03:00N 40°25' W 074°02'2 3.4
2017-Dec-11 02:27N 40°25' W 073°60'1328.4
2017-Dec-11 02:00N 40°37' W 074°03'816.0
2017-Dec-11 01:30N 40°45' W 073°58'1224.7
2017-Dec-11 01:00N 40°33' W 074°02'816.7
2017-Dec-11 00:30N 40°25' W 073°60'0 0.0
2017-Dec-11 00:00N 40°25' W 073°60'0 0.2
2017-Dec-10 23:30N 40°25' W 073°60'1529.8
2017-Dec-10 23:01N 40°39' W 074°02'4 7.2
2017-Dec-10 22:30N 40°42' W 073°59'510.8
2017-Dec-10 22:01N 40°38' W 074°03'1324.5
2017-Dec-10 21:28N 40°25' W 073°60'510.8
2017-Dec-10 21:00N 40°29' W 074°02'1325.5
2017-Dec-10 20:30N 40°42' W 074°00'3 6.0
2017-Dec-10 20:01N 40°45' W 073°58'1324.9
2017-Dec-10 19:30N 40°32' W 074°02'815.2
2017-Dec-10 18:59N 40°25' W 074°00'1429.0
2017-Dec-10 18:30N 40°39' W 074°02'612.3
2017-Dec-10 18:00N 40°44' W 073°58'816.1
2017-Dec-10 17:31N 40°37' W 074°03'1224.5
2017-Dec-10 17:00N 40°25' W 073°60'3 6.8
2017-Dec-10 16:29N 40°28' W 074°01'1428.1
2017-Dec-10 16:01N 40°41' W 074°02'2 3.7
2017-Dec-10 15:31N 40°42' W 073°59'611.4
2017-Dec-10 15:00N 40°37' W 074°03'1318.2
2017-Dec-10 14:18N 40°25' W 073°60'2 5.6
2017-Dec-10 13:59N 40°25' W 074°02'0 0.1
2017-Dec-10 13:31N 40°25' W 074°02'0 0.0
2017-Dec-10 13:00N 40°25' W 074°02'0 0.0
2017-Dec-09 00:59N 40°25' W 074°02'2 2.7
2017-Dec-09 00:17N 40°25' W 073°60'1 3.3
2017-Dec-09 00:00N 40°25' W 074°00'1122.0
2017-Dec-08 23:31N 40°36' W 074°03'918.1
2017-Dec-08 23:00N 40°45' W 073°58'918.3
2017-Dec-08 22:30N 40°36' W 074°03'1222.5
2017-Dec-08 22:00N 40°25' W 074°00'1123.3
2017-Dec-08 21:30N 40°36' W 074°03'713.1
2017-Dec-08 21:01N 40°42' W 074°00'1 2.2
2017-Dec-08 20:31N 40°41' W 074°01'1326.2
2017-Dec-08 20:00N 40°28' W 074°01'3 3.8
2017-Dec-08 19:05N 40°25' W 073°60'0 0.3
2017-Dec-08 18:58N 40°25' W 073°60'2 3.8
2017-Dec-08 18:29N 40°25' W 074°02'0 0.0
2017-Dec-08 18:00N 40°25' W 074°02'0 0.0
2017-Dec-08 17:30N 40°25' W 074°02'0 0.0
2017-Dec-08 16:59N 40°25' W 074°02'0 0.0
2017-Dec-08 16:29N 40°25' W 074°02'0 0.0
2017-Dec-08 15:57N 40°25' W 074°02'0 0.0
2017-Dec-08 15:30N 40°25' W 074°02'0 0.0
2017-Dec-08 14:59N 40°25' W 074°02'0 0.0
2017-Dec-08 14:29N 40°25' W 074°02'1429.3
2017-Dec-08 14:00N 40°39' W 074°03'612.8
2017-Dec-08 13:30N 40°45' W 073°58'510.7
2017-Dec-08 13:01N 40°40' W 074°02'1524.3
2017-Dec-08 12:23N 40°25' W 074°02'0 0.0
2017-Dec-08 12:00N 40°25' W 074°02'0 0.0
2017-Dec-08 11:30N 40°25' W 074°02'0 0.0
2017-Dec-08 11:00N 40°25' W 074°02'0 0.0
2017-Dec-08 00:05N 40°25' W 074°02'215.3
2017-Dec-07 23:58N 40°25' W 073°60'1124.4
2017-Dec-07 23:30N 40°36' W 074°03'1018.9
2017-Dec-07 23:00N 40°45' W 073°58'817.3
2017-Dec-07 22:30N 40°37' W 074°03'1222.7
2017-Dec-07 21:59N 40°25' W 074°00'1121.2
2017-Dec-07 21:30N 40°36' W 074°03'714.1
2017-Dec-07 21:01N 40°42' W 074°00'0 0.7
2017-Dec-07 20:31N 40°42' W 073°60'1427.7
2017-Dec-07 20:00N 40°28' W 074°01'4 4.2
2017-Dec-07 19:04N 40°25' W 073°60'210.3
2017-Dec-07 18:53N 40°25' W 074°02'0 0.0
2017-Dec-07 18:29N 40°25' W 074°02'0 0.0
2017-Dec-07 18:00N 40°25' W 074°02'0 0.0
2017-Dec-07 17:26N 40°25' W 074°02'0 0.0
2017-Dec-07 17:00N 40°25' W 074°02'0 0.0
2017-Dec-07 16:30N 40°25' W 074°02'0 0.0
2017-Dec-07 15:57N 40°25' W 074°02'0 0.0
2017-Dec-07 15:29N 40°25' W 074°02'0 0.0
2017-Dec-07 14:57N 40°25' W 074°02'0 0.2
2017-Dec-07 14:24N 40°25' W 074°02'1333.5
2017-Dec-07 14:01N 40°38' W 074°03'713.6
2017-Dec-07 13:30N 40°45' W 073°58'510.9
2017-Dec-07 13:01N 40°40' W 074°01'1524.3
2017-Dec-07 12:24N 40°25' W 074°02'0 0.0
2017-Dec-07 11:59N 40°25' W 074°02'0 0.0
2017-Dec-07 00:20N 40°25' W 074°02'2 5.5
2017-Dec-07 00:00N 40°25' W 073°60'1428.5
2017-Dec-06 23:31N 40°38' W 074°03'714.1
2017-Dec-06 23:00N 40°45' W 073°58'1325.0
2017-Dec-06 22:30N 40°32' W 074°02'714.1
2017-Dec-06 21:59N 40°25' W 074°01'1020.7
2017-Dec-06 21:30N 40°35' W 074°03'714.4
2017-Dec-06 21:00N 40°42' W 074°00'  
2017-Dec-02 00:49N 40°25' W 074°02'2 4.9
2017-Dec-02 00:26N 40°25' W 073°60'1 1.2
2017-Dec-02 00:00N 40°25' W 074°00'1122.2
2017-Dec-01 23:30N 40°36' W 074°03'918.2
2017-Dec-01 23:00N 40°45' W 073°58'918.5
2017-Dec-01 22:31N 40°36' W 074°03'1222.1
2017-Dec-01 21:59N 40°25' W 073°60'1124.0
2017-Dec-01 21:30N 40°36' W 074°03'713.9
2017-Dec-01 21:00N 40°42' W 073°60'0 0.9
2017-Dec-01 20:30N 40°42' W 073°59'1529.0
2017-Dec-01 20:00N 40°28' W 074°01'3 5.6
2017-Dec-01 19:23N 40°25' W 073°60'0 0.1
2017-Dec-01 18:57N 40°25' W 073°60'2 4.1
2017-Dec-01 18:30N 40°25' W 074°02'0 0.0
2017-Dec-01 18:00N 40°25' W 074°02'0 0.0
2017-Dec-01 17:29N 40°25' W 074°02'0 0.0
2017-Dec-01 17:00N 40°25' W 074°02'  
Track history (hours):
 
Tides and Currents Weather Stations Pressure Air Temp Water Temp Dewpoint Dewpoint Depression Visibility Wind Speed Wind Dir Waves Ship Positions

Seastreak Highlands

Owner: Seastreak llc, atlantic highlands, NJ. More information available from US FCC via Universal Licensing System and Coast Guard Vessel Documentation Center.

Last reported at 2017-Dec-11 16:52 UTC. Time now 2017-Dec-13 03:44 UTC.
Position N 40°25' W 074°02'.

Length 44 m.

Type: High speed craft. MMSI: 367347670.

Date/timePositionNaut miles runAvg speedWind from/ knotsBaromVisibWave heightAir tempDewpointWater temp
2017-Dec-11 16:52N 40°25' W 074°02'0 0.0
2017-Dec-11 16:21N 40°25' W 074°02'0 0.0
2017-Dec-11 15:59N 40°25' W 074°02'0 0.0
2017-Dec-11 15:29N 40°25' W 074°02'0 0.0
2017-Dec-11 15:00N 40°25' W 074°02'0 0.2
2017-Dec-11 14:30N 40°25' W 074°02'1427.8
2017-Dec-11 14:01N 40°39' W 074°02'712.9
2017-Dec-11 13:30N 40°45' W 073°58'613.0
2017-Dec-11 13:01N 40°39' W 074°02'1426.6
2017-Dec-11 12:30N 40°25' W 074°02'0 0.0
2017-Dec-11 11:59N 40°25' W 074°02'0 0.0
2017-Dec-11 03:04N 40°25' W 074°02'0 0.5
2017-Dec-11 03:00N 40°25' W 074°02'2 3.4
2017-Dec-11 02:27N 40°25' W 073°60'1328.4
2017-Dec-11 02:00N 40°37' W 074°03'816.0
2017-Dec-11 01:30N 40°45' W 073°58'1224.7
2017-Dec-11 01:00N 40°33' W 074°02'816.7
2017-Dec-11 00:30N 40°25' W 073°60'0 0.0
2017-Dec-11 00:00N 40°25' W 073°60'0 0.2
2017-Dec-10 23:30N 40°25' W 073°60'1529.8
2017-Dec-10 23:01N 40°39' W 074°02'4 7.2
2017-Dec-10 22:30N 40°42' W 073°59'510.8
2017-Dec-10 22:01N 40°38' W 074°03'1324.5
2017-Dec-10 21:28N 40°25' W 073°60'510.8
2017-Dec-10 21:00N 40°29' W 074°02'1325.5
2017-Dec-10 20:30N 40°42' W 074°00'3 6.0
2017-Dec-10 20:01N 40°45' W 073°58'1324.9
2017-Dec-10 19:30N 40°32' W 074°02'815.2
2017-Dec-10 18:59N 40°25' W 074°00'1429.0
2017-Dec-10 18:30N 40°39' W 074°02'612.3
2017-Dec-10 18:00N 40°44' W 073°58'816.1
2017-Dec-10 17:31N 40°37' W 074°03'1224.5
2017-Dec-10 17:00N 40°25' W 073°60'3 6.8
2017-Dec-10 16:29N 40°28' W 074°01'1428.1
2017-Dec-10 16:01N 40°41' W 074°02'2 3.7
2017-Dec-10 15:31N 40°42' W 073°59'611.4
2017-Dec-10 15:00N 40°37' W 074°03'1318.2
2017-Dec-10 14:18N 40°25' W 073°60'2 5.6
2017-Dec-10 13:59N 40°25' W 074°02'0 0.1
2017-Dec-10 13:31N 40°25' W 074°02'0 0.0
2017-Dec-10 13:00N 40°25' W 074°02'0 0.0
2017-Dec-09 00:59N 40°25' W 074°02'2 2.7
2017-Dec-09 00:17N 40°25' W 073°60'1 3.3
2017-Dec-09 00:00N 40°25' W 074°00'1122.0
2017-Dec-08 23:31N 40°36' W 074°03'918.1
2017-Dec-08 23:00N 40°45' W 073°58'918.3
2017-Dec-08 22:30N 40°36' W 074°03'1222.5
2017-Dec-08 22:00N 40°25' W 074°00'1123.3
2017-Dec-08 21:30N 40°36' W 074°03'713.1
2017-Dec-08 21:01N 40°42' W 074°00'1 2.2
2017-Dec-08 20:31N 40°41' W 074°01'1326.2
2017-Dec-08 20:00N 40°28' W 074°01'3 3.8
2017-Dec-08 19:05N 40°25' W 073°60'0 0.3
2017-Dec-08 18:58N 40°25' W 073°60'2 3.8
2017-Dec-08 18:29N 40°25' W 074°02'0 0.0
2017-Dec-08 18:00N 40°25' W 074°02'0 0.0
2017-Dec-08 17:30N 40°25' W 074°02'0 0.0
2017-Dec-08 16:59N 40°25' W 074°02'0 0.0
2017-Dec-08 16:29N 40°25' W 074°02'0 0.0
2017-Dec-08 15:57N 40°25' W 074°02'0 0.0
2017-Dec-08 15:30N 40°25' W 074°02'0 0.0
2017-Dec-08 14:59N 40°25' W 074°02'0 0.0
2017-Dec-08 14:29N 40°25' W 074°02'1429.3
2017-Dec-08 14:00N 40°39' W 074°03'612.8
2017-Dec-08 13:30N 40°45' W 073°58'510.7
2017-Dec-08 13:01N 40°40' W 074°02'1524.3
2017-Dec-08 12:23N 40°25' W 074°02'0 0.0
2017-Dec-08 12:00N 40°25' W 074°02'0 0.0
2017-Dec-08 11:30N 40°25' W 074°02'0 0.0
2017-Dec-08 11:00N 40°25' W 074°02'0 0.0
2017-Dec-08 00:05N 40°25' W 074°02'215.3
2017-Dec-07 23:58N 40°25' W 073°60'1124.4
2017-Dec-07 23:30N 40°36' W 074°03'1018.9
2017-Dec-07 23:00N 40°45' W 073°58'817.3
2017-Dec-07 22:30N 40°37' W 074°03'1222.7
2017-Dec-07 21:59N 40°25' W 074°00'1121.2
2017-Dec-07 21:30N 40°36' W 074°03'714.1
2017-Dec-07 21:01N 40°42' W 074°00'0 0.7
2017-Dec-07 20:31N 40°42' W 073°60'1427.7
2017-Dec-07 20:00N 40°28' W 074°01'4 4.2
2017-Dec-07 19:04N 40°25' W 073°60'210.3
2017-Dec-07 18:53N 40°25' W 074°02'0 0.0
2017-Dec-07 18:29N 40°25' W 074°02'0 0.0
2017-Dec-07 18:00N 40°25' W 074°02'0 0.0
2017-Dec-07 17:26N 40°25' W 074°02'0 0.0
2017-Dec-07 17:00N 40°25' W 074°02'0 0.0
2017-Dec-07 16:30N 40°25' W 074°02'0 0.0
2017-Dec-07 15:57N 40°25' W 074°02'0 0.0
2017-Dec-07 15:29N 40°25' W 074°02'0 0.0
2017-Dec-07 14:57N 40°25' W 074°02'0 0.2
2017-Dec-07 14:24N 40°25' W 074°02'1333.5
2017-Dec-07 14:01N 40°38' W 074°03'713.6
2017-Dec-07 13:30N 40°45' W 073°58'510.9
2017-Dec-07 13:01N 40°40' W 074°01'1524.3
2017-Dec-07 12:24N 40°25' W 074°02'0 0.0
2017-Dec-07 11:59N 40°25' W 074°02'0 0.0
2017-Dec-07 00:20N 40°25' W 074°02'2 5.5
2017-Dec-07 00:00N 40°25' W 073°60'1428.5
2017-Dec-06 23:31N 40°38' W 074°03'714.1
2017-Dec-06 23:00N 40°45' W 073°58'1325.0
2017-Dec-06 22:30N 40°32' W 074°02'714.1
2017-Dec-06 21:59N 40°25' W 074°01'1020.7
2017-Dec-06 21:30N 40°35' W 074°03'714.4
2017-Dec-06 21:00N 40°42' W 074°00'  
2017-Dec-02 00:49N 40°25' W 074°02'2 4.9
2017-Dec-02 00:26N 40°25' W 073°60'1 1.2
2017-Dec-02 00:00N 40°25' W 074°00'1122.2
2017-Dec-01 23:30N 40°36' W 074°03'918.2
2017-Dec-01 23:00N 40°45' W 073°58'918.5
2017-Dec-01 22:31N 40°36' W 074°03'1222.1
2017-Dec-01 21:59N 40°25' W 073°60'1124.0
2017-Dec-01 21:30N 40°36' W 074°03'713.9
2017-Dec-01 21:00N 40°42' W 073°60'0 0.9
2017-Dec-01 20:30N 40°42' W 073°59'1529.0
2017-Dec-01 20:00N 40°28' W 074°01'3 5.6
2017-Dec-01 19:23N 40°25' W 073°60'0 0.1
2017-Dec-01 18:57N 40°25' W 073°60'2 4.1
2017-Dec-01 18:30N 40°25' W 074°02'0 0.0
2017-Dec-01 18:00N 40°25' W 074°02'0 0.0
2017-Dec-01 17:29N 40°25' W 074°02'0 0.0
2017-Dec-01 17:00N 40°25' W 074°02'  

Dump ship's entire track history